createdAt,value
2023-05-10T00:01:42.514Z,2.53
2023-05-10T00:04:43.819Z,3.38
2023-05-10T00:07:48.018Z,2.60
2023-05-10T00:10:49.493Z,2.40
2023-05-10T00:13:50.782Z,3.17
2023-05-10T00:16:52.153Z,5.53
2023-05-10T00:19:53.433Z,2.40
2023-05-10T00:22:54.730Z,2.60
2023-05-10T00:25:56.023Z,3.40
2023-05-10T00:28:57.895Z,2.90
2023-05-10T00:31:59.289Z,2.70
2023-05-10T00:35:00.677Z,4.03
2023-05-10T00:38:01.965Z,2.55
2023-05-10T00:41:03.523Z,8.23
2023-05-10T00:44:05.170Z,3.17
2023-05-10T00:47:06.502Z,3.10
2023-05-10T00:50:08.152Z,3.22
2023-05-10T00:53:09.871Z,2.83
2023-05-10T00:56:11.507Z,2.90
2023-05-10T00:59:12.770Z,2.65
2023-05-10T01:02:14.212Z,4.28
2023-05-10T01:05:15.571Z,2.60
2023-05-10T01:08:16.897Z,2.88
2023-05-10T01:11:18.164Z,3.13
2023-05-10T01:14:20.702Z,3.80
2023-05-10T01:17:22.887Z,4.03
2023-05-10T01:20:24.871Z,2.42
2023-05-10T01:23:40.581Z,5.18
2023-05-10T01:26:47.755Z,3.17
2023-05-10T01:30:18.161Z,3.20
2023-05-10T01:33:19.464Z,3.83
2023-05-10T01:36:28.086Z,2.95
2023-05-10T01:39:46.443Z,3.00
2023-05-10T01:42:50.014Z,3.22
2023-05-10T01:46:00.867Z,3.55
2023-05-10T01:49:03.172Z,4.28
2023-05-10T01:52:09.408Z,3.65
2023-05-10T01:55:14.053Z,3.08
2023-05-10T01:58:18.065Z,3.88
2023-05-10T02:01:21.295Z,3.88
2023-05-10T02:04:22.860Z,4.20
2023-05-10T02:07:24.816Z,3.90
2023-05-10T02:10:26.826Z,5.18
2023-05-10T02:13:28.540Z,3.40
2023-05-10T02:16:31.827Z,3.72
2023-05-10T02:19:33.526Z,3.90
2023-05-10T02:22:36.395Z,4.50
2023-05-10T02:25:39.547Z,4.00
2023-05-10T02:28:41.725Z,5.43
2023-05-10T02:31:44.499Z,3.80
2023-05-10T02:34:47.264Z,3.30
2023-05-10T02:37:48.771Z,3.63
2023-05-10T02:40:50.361Z,3.75
2023-05-10T02:43:52.885Z,4.43
2023-05-10T02:46:56.863Z,3.83
2023-05-10T02:49:58.142Z,4.85
2023-05-10T02:53:04.812Z,7.50
2023-05-10T02:56:10.343Z,3.63
2023-05-10T02:59:12.019Z,5.00
2023-05-10T03:02:13.734Z,4.38
2023-05-10T03:05:14.976Z,4.63
2023-05-10T03:08:16.274Z,6.28
2023-05-10T03:11:38.680Z,4.93
2023-05-10T03:15:03.205Z,4.22
2023-05-10T03:18:04.480Z,4.00
2023-05-10T03:21:08.865Z,4.35
2023-05-10T03:24:12.867Z,4.32
2023-05-10T03:27:15.262Z,6.15
2023-05-10T03:30:17.190Z,4.07
2023-05-10T03:33:18.650Z,4.88
2023-05-10T03:36:20.500Z,6.35
2023-05-10T03:39:22.308Z,5.63
2023-05-10T03:42:23.679Z,4.40
2023-05-10T03:45:25.004Z,6.55
2023-05-10T03:48:26.285Z,5.28
2023-05-10T03:51:29.085Z,4.03
2023-05-10T03:54:30.328Z,5.60
2023-05-10T03:57:31.660Z,6.47
2023-05-10T04:00:33.492Z,4.30
2023-05-10T04:03:37.226Z,4.32
2023-05-10T04:06:38.941Z,4.70
2023-05-10T04:09:40.261Z,4.20
2023-05-10T04:12:41.939Z,5.63
2023-05-10T04:15:44.109Z,5.22
2023-05-10T04:18:45.364Z,5.20
2023-05-10T04:21:46.653Z,4.57
2023-05-10T04:24:47.940Z,4.72
2023-05-10T04:27:49.288Z,4.28
2023-05-10T04:30:50.667Z,5.88
2023-05-10T04:33:51.986Z,5.07
2023-05-10T04:36:53.250Z,4.70
2023-05-10T04:39:54.600Z,7.57
2023-05-10T04:42:55.904Z,5.65
2023-05-10T04:45:57.486Z,6.25
2023-05-10T04:48:58.797Z,5.95
2023-05-10T04:52:00.145Z,5.80
2023-05-10T04:55:01.486Z,5.70
2023-05-10T04:58:03.782Z,5.30
2023-05-10T05:01:10.411Z,4.82
2023-05-10T05:04:12.037Z,5.15
2023-05-10T05:07:13.403Z,6.57
2023-05-10T05:10:14.823Z,4.97
2023-05-10T05:13:16.165Z,6.72
2023-05-10T05:16:17.572Z,5.03
2023-05-10T05:19:18.912Z,4.55
2023-05-10T05:22:20.558Z,5.38
2023-05-10T05:25:22.048Z,4.93
2023-05-10T05:28:23.380Z,4.13
2023-05-10T05:31:24.749Z,4.57
2023-05-10T05:34:26.943Z,6.50
2023-05-10T05:37:28.233Z,5.97
2023-05-10T05:40:29.476Z,4.75
2023-05-10T05:43:30.797Z,5.05
2023-05-10T05:46:32.055Z,4.75
2023-05-10T05:49:33.767Z,5.80
2023-05-10T05:52:35.164Z,5.40
2023-05-10T05:55:36.589Z,5.28
2023-05-10T05:58:37.896Z,4.68
2023-05-10T06:01:39.159Z,5.15
2023-05-10T06:04:42.682Z,5.78
2023-05-10T06:07:46.005Z,4.13
2023-05-10T06:10:47.293Z,3.90
2023-05-10T06:13:48.764Z,6.13
2023-05-10T06:16:50.097Z,4.47
2023-05-10T06:19:51.537Z,4.43
2023-05-10T06:22:52.809Z,5.85
2023-05-10T06:25:54.069Z,4.82
2023-05-10T06:28:55.561Z,6.32
2023-05-10T06:31:56.876Z,6.32
2023-05-10T06:34:58.180Z,4.03
2023-05-10T06:37:59.449Z,5.18
2023-05-10T06:41:00.780Z,4.53
2023-05-10T06:44:02.104Z,4.32
2023-05-10T06:47:03.437Z,4.68
2023-05-10T06:50:04.892Z,5.57
2023-05-10T06:53:06.238Z,4.07
2023-05-10T06:56:07.586Z,4.90
2023-05-10T06:59:08.938Z,4.75
2023-05-10T07:02:10.407Z,5.47
2023-05-10T07:05:11.772Z,4.85
2023-05-10T07:08:14.298Z,5.15
2023-05-10T07:11:15.562Z,6.40
2023-05-10T07:14:16.808Z,5.25
2023-05-10T07:17:18.217Z,3.72
2023-05-10T07:20:19.695Z,5.72
2023-05-10T07:23:21.160Z,4.38
2023-05-10T07:26:22.402Z,5.18
2023-05-10T07:29:23.672Z,5.82
2023-05-10T07:32:25.042Z,4.95
2023-05-10T07:35:26.399Z,4.63
2023-05-10T07:38:27.729Z,5.32
2023-05-10T07:41:29.156Z,4.72
2023-05-10T07:44:30.454Z,5.18
2023-05-10T07:47:31.896Z,6.32
2023-05-10T07:50:33.366Z,6.18
2023-05-10T07:53:34.655Z,5.97
2023-05-10T07:56:35.995Z,4.25
2023-05-10T07:59:37.416Z,3.92
2023-05-10T08:02:38.819Z,4.03
2023-05-10T08:05:40.189Z,4.25
2023-05-10T08:08:41.623Z,3.30
2023-05-10T08:11:43.013Z,2.88
2023-05-10T08:14:44.305Z,3.05
2023-05-10T08:17:45.724Z,3.15
2023-05-10T08:20:47.064Z,3.67
2023-05-10T08:23:48.494Z,3.28
2023-05-10T08:26:49.774Z,2.40
2023-05-10T08:29:51.112Z,2.90
2023-05-10T08:32:52.448Z,2.65
2023-05-10T08:35:53.775Z,2.28
2023-05-10T08:38:55.653Z,2.38
2023-05-10T08:41:59.948Z,1.67
2023-05-10T08:45:01.364Z,1.83
2023-05-10T08:48:03.167Z,1.90
2023-05-10T08:51:04.653Z,2.10
2023-05-10T08:54:06.728Z,1.42
2023-05-10T08:57:08.077Z,1.60
2023-05-10T09:00:10.248Z,3.67
2023-05-10T09:03:11.649Z,1.60
2023-05-10T09:06:14.073Z,1.30
2023-05-10T09:09:17.109Z,2.22
2023-05-10T09:12:18.520Z,2.78
2023-05-10T09:15:20.864Z,1.48
2023-05-10T09:18:22.236Z,1.80
2023-05-10T09:21:23.581Z,2.65
2023-05-10T09:24:28.119Z,2.47
2023-05-10T09:27:29.405Z,2.58
2023-05-10T09:30:31.485Z,1.88
2023-05-10T09:33:44.402Z,2.53
2023-05-10T09:36:55.546Z,2.17
2023-05-10T09:39:57.015Z,4.68
2023-05-10T09:43:08.088Z,2.50
2023-05-10T09:46:09.905Z,3.17
2023-05-10T09:49:15.180Z,2.90
2023-05-10T09:52:16.565Z,4.32
2023-05-10T09:55:19.055Z,2.42
2023-05-10T09:58:20.359Z,2.75
2023-05-10T10:01:21.690Z,3.75
2023-05-10T10:04:23.069Z,2.55
2023-05-10T10:07:26.402Z,2.22
2023-05-10T10:10:28.305Z,2.60
2023-05-10T10:13:30.230Z,2.60
2023-05-10T10:16:32.352Z,2.60
2023-05-10T10:19:34.338Z,2.60
2023-05-10T10:22:35.762Z,2.42
2023-05-10T10:25:37.214Z,2.08
2023-05-10T10:28:57.495Z,2.40
2023-05-10T10:32:07.135Z,2.30
2023-05-10T10:35:09.316Z,2.40
2023-05-10T10:38:10.703Z,2.70
2023-05-10T10:41:27.587Z,1.92
2023-05-10T10:47:33.857Z,2.63
2023-05-10T10:50:44.374Z,1.88
2023-05-10T10:53:48.831Z,2.05
2023-05-10T10:57:10.176Z,2.00
2023-05-10T11:00:23.697Z,1.17
2023-05-10T11:03:26.324Z,1.35
2023-05-10T11:06:32.624Z,1.10
2023-05-10T11:09:40.288Z,1.33
2023-05-10T11:12:51.888Z,3.45
2023-05-10T11:15:53.194Z,1.48
2023-05-10T11:18:55.595Z,1.75
2023-05-10T11:22:06.118Z,3.38
2023-05-10T11:25:07.666Z,1.23
2023-05-10T11:28:08.964Z,1.73
2023-05-10T11:31:10.805Z,1.55
2023-05-10T11:34:12.185Z,1.75
2023-05-10T11:37:13.451Z,1.60
2023-05-10T11:40:15.727Z,1.83
2023-05-10T11:43:17.249Z,4.57
2023-05-10T11:46:21.286Z,2.30
2023-05-10T11:49:24.035Z,1.80
2023-05-10T11:52:25.333Z,1.23
2023-05-10T11:55:26.706Z,1.80
2023-05-10T11:58:27.957Z,3.15
2023-05-10T12:01:29.831Z,1.45
2023-05-10T12:04:31.809Z,3.75
2023-05-10T12:07:33.185Z,1.92
2023-05-10T12:10:35.651Z,2.22
2023-05-10T12:13:43.437Z,1.33
2023-05-10T12:16:44.786Z,1.40
2023-05-10T12:19:46.128Z,2.35
2023-05-10T12:22:48.321Z,2.53
2023-05-10T12:25:49.667Z,3.30
2023-05-10T12:28:51.002Z,2.53
2023-05-10T12:31:55.487Z,2.22
2023-05-10T12:34:58.484Z,1.77
2023-05-10T12:38:00.200Z,1.70
2023-05-10T12:41:03.098Z,1.67
2023-05-10T12:44:04.586Z,2.15
2023-05-10T12:47:06.761Z,1.90
2023-05-10T12:50:08.383Z,1.35
2023-05-10T12:53:09.733Z,1.75
2023-05-10T12:56:11.051Z,2.70
2023-05-10T12:59:12.356Z,2.13
2023-05-10T13:02:13.981Z,1.60
2023-05-10T13:05:15.374Z,2.00
2023-05-10T13:08:16.656Z,2.65
2023-05-10T13:11:18.340Z,1.75
2023-05-10T13:14:21.305Z,2.85
2023-05-10T13:17:22.687Z,2.92
2023-05-10T13:20:23.979Z,2.20
2023-05-10T13:23:25.322Z,3.40
2023-05-10T13:26:27.182Z,3.00
2023-05-10T13:29:28.506Z,3.13
2023-05-10T13:32:30.088Z,1.98
2023-05-10T13:35:31.442Z,2.80
2023-05-10T13:38:32.918Z,3.25
2023-05-10T13:41:34.236Z,2.28
2023-05-10T13:44:35.570Z,4.20
2023-05-10T13:47:37.322Z,2.10
2023-05-10T13:50:39.478Z,1.63
2023-05-10T13:53:40.746Z,1.63
2023-05-10T13:56:43.471Z,1.23
2023-05-10T13:59:44.768Z,2.20
2023-05-10T14:02:46.102Z,2.88
2023-05-10T14:05:48.394Z,1.95
2023-05-10T14:08:49.666Z,2.72
2023-05-10T14:11:50.973Z,2.35
2023-05-10T14:14:53.141Z,1.60
2023-05-10T14:17:54.518Z,1.35
2023-05-10T14:20:56.284Z,3.08
2023-05-10T14:23:58.079Z,2.45
2023-05-10T14:26:59.678Z,2.25
2023-05-10T14:30:01.347Z,1.73
2023-05-10T14:33:03.250Z,2.58
2023-05-10T14:36:04.973Z,1.85
2023-05-10T14:39:07.563Z,1.48
2023-05-10T14:42:09.470Z,1.58
2023-05-10T14:45:11.968Z,1.17
2023-05-10T14:48:16.278Z,2.10
2023-05-10T14:51:17.607Z,1.58
2023-05-10T14:54:18.891Z,1.95
2023-05-10T14:57:20.225Z,2.17
2023-05-10T15:00:21.774Z,1.67
2023-05-10T15:03:23.675Z,1.80
2023-05-10T15:06:31.581Z,1.50
2023-05-10T15:09:32.839Z,4.97
2023-05-10T15:12:34.115Z,2.38
2023-05-10T15:15:35.432Z,1.70
2023-05-10T15:18:36.782Z,1.15
2023-05-10T15:21:39.783Z,1.92
2023-05-10T15:24:41.138Z,1.90
2023-05-10T15:27:44.436Z,1.90
2023-05-10T15:30:45.722Z,2.25
2023-05-10T15:33:47.043Z,1.38
2023-05-10T15:36:48.424Z,1.65
2023-05-10T15:39:49.856Z,2.72
2023-05-10T15:42:51.139Z,2.72
2023-05-10T15:45:52.414Z,1.27
2023-05-10T15:48:55.185Z,1.63
2023-05-10T15:51:56.733Z,1.40
2023-05-10T15:54:58.024Z,1.17
2023-05-10T15:57:59.342Z,2.38
2023-05-10T16:01:00.704Z,1.20
2023-05-10T16:04:02.114Z,1.17
2023-05-10T16:07:03.546Z,3.03
2023-05-10T16:10:06.543Z,2.03
2023-05-10T16:13:08.240Z,1.55
2023-05-10T16:16:09.586Z,1.38
2023-05-10T16:19:11.057Z,1.23
2023-05-10T16:22:12.388Z,0.85
2023-05-10T16:25:13.832Z,1.30
2023-05-10T16:28:15.152Z,2.28
2023-05-10T16:31:18.264Z,1.25
2023-05-10T16:34:24.127Z,1.42
2023-05-10T16:37:25.511Z,1.88
2023-05-10T16:40:26.850Z,1.33
2023-05-10T16:43:28.258Z,1.60
2023-05-10T16:46:29.562Z,1.40
2023-05-10T16:49:31.009Z,1.27
2023-05-10T16:52:32.672Z,2.20
2023-05-10T16:55:33.977Z,1.23
2023-05-10T16:58:35.246Z,1.60
2023-05-10T17:01:36.541Z,2.22
2023-05-10T17:04:38.038Z,1.42
2023-05-10T17:07:39.397Z,1.40
2023-05-10T17:10:41.477Z,1.85
2023-05-10T17:13:42.959Z,1.60
2023-05-10T17:16:44.307Z,3.35
2023-05-10T17:19:45.624Z,1.92
2023-05-10T17:22:47.004Z,1.33
2023-05-10T17:25:48.427Z,1.42
2023-05-10T17:28:49.796Z,2.00
2023-05-10T17:31:51.226Z,1.52
2023-05-10T17:34:52.539Z,1.55
2023-05-10T17:37:54.102Z,1.33
2023-05-10T17:40:55.511Z,3.67
2023-05-10T17:43:56.801Z,1.08
2023-05-10T17:46:58.455Z,1.38
2023-05-10T17:49:59.708Z,1.65
2023-05-10T17:53:01.145Z,1.90
2023-05-10T17:56:02.516Z,1.70
2023-05-10T17:59:03.877Z,2.33
2023-05-10T18:02:05.200Z,2.30
2023-05-10T18:05:07.123Z,1.42
2023-05-10T18:08:08.598Z,2.90
2023-05-10T18:11:09.944Z,1.80
2023-05-10T18:14:11.350Z,4.32
2023-05-10T18:17:12.796Z,1.15
2023-05-10T18:20:14.220Z,2.05
2023-05-10T18:23:15.636Z,2.47
2023-05-10T18:26:18.146Z,1.90
2023-05-10T18:29:19.534Z,1.40
2023-05-10T18:32:20.825Z,1.73
2023-05-10T18:35:22.325Z,2.33
2023-05-10T18:38:23.857Z,2.65
2023-05-10T18:41:27.948Z,2.45
2023-05-10T18:44:29.357Z,3.47
2023-05-10T18:47:31.009Z,2.88
2023-05-10T18:50:32.708Z,1.92
2023-05-10T18:53:33.989Z,2.40
2023-05-10T18:56:35.422Z,2.50
2023-05-10T18:59:36.841Z,2.95
2023-05-10T19:02:39.160Z,3.97
2023-05-10T19:05:40.603Z,2.97
2023-05-10T19:08:41.985Z,2.80
2023-05-10T19:11:43.397Z,3.58
2023-05-10T19:14:44.803Z,2.72
2023-05-10T19:17:46.611Z,2.25
2023-05-10T19:20:47.921Z,2.17
2023-05-10T19:23:49.482Z,3.00
2023-05-10T19:26:51.237Z,3.20
2023-05-10T19:29:52.685Z,2.65
2023-05-10T19:32:54.020Z,2.40
2023-05-10T19:35:55.452Z,2.83
2023-05-10T19:38:56.724Z,2.63
2023-05-10T19:41:58.052Z,1.85
2023-05-10T19:44:59.743Z,2.53
2023-05-10T19:48:01.317Z,2.13
2023-05-10T19:51:03.597Z,2.20
2023-05-10T19:54:04.917Z,1.83
2023-05-10T19:57:06.346Z,2.90
2023-05-10T20:00:08.048Z,2.33
2023-05-10T20:03:09.616Z,2.70
2023-05-10T20:06:10.900Z,2.92
2023-05-10T20:09:12.318Z,2.75
2023-05-10T20:12:13.679Z,3.08
2023-05-10T20:15:15.146Z,5.93
2023-05-10T20:18:16.681Z,3.28
2023-05-10T20:21:18.577Z,3.08
2023-05-10T20:24:19.963Z,3.55
2023-05-10T20:27:21.390Z,3.08
2023-05-10T20:30:23.131Z,3.30
2023-05-10T20:33:24.562Z,3.17
2023-05-10T20:36:26.818Z,4.05
2023-05-10T20:39:29.032Z,2.15
2023-05-10T20:42:30.293Z,3.70
2023-05-10T20:45:31.989Z,4.57
2023-05-10T20:48:36.250Z,3.58
2023-05-10T20:51:37.579Z,3.25
2023-05-10T20:54:38.903Z,3.03
2023-05-10T20:57:40.215Z,3.65
2023-05-10T21:00:41.586Z,2.08
2023-05-10T21:03:42.865Z,2.58
2023-05-10T21:06:47.057Z,2.15
2023-05-10T21:09:48.340Z,2.08
2023-05-10T21:12:49.749Z,2.80
2023-05-10T21:15:51.057Z,2.60
2023-05-10T21:18:52.366Z,1.83
2023-05-10T21:21:56.042Z,2.50
2023-05-10T21:24:57.814Z,2.03
2023-05-10T21:27:59.143Z,2.25
2023-05-10T21:31:00.443Z,3.72
2023-05-10T21:34:01.856Z,3.38
2023-05-10T21:37:03.146Z,2.90
2023-05-10T21:40:04.898Z,2.97
2023-05-10T21:43:06.211Z,2.58
2023-05-10T21:46:08.233Z,3.95
2023-05-10T21:49:09.734Z,2.25
2023-05-10T21:52:11.123Z,2.60
2023-05-10T21:55:12.408Z,2.72
2023-05-10T21:58:13.699Z,2.42
2023-05-10T22:01:17.125Z,3.15
2023-05-10T22:04:18.499Z,3.65
2023-05-10T22:07:20.051Z,3.95
2023-05-10T22:10:21.334Z,2.85
2023-05-10T22:13:22.611Z,3.17
2023-05-10T22:16:24.481Z,5.95
2023-05-10T22:19:25.959Z,2.75
2023-05-10T22:22:27.260Z,2.75
2023-05-10T22:25:28.592Z,2.67
2023-05-10T22:28:30.109Z,3.05
2023-05-10T22:31:31.410Z,2.95
2023-05-10T22:34:33.052Z,4.30
2023-05-10T22:37:34.308Z,2.78
2023-05-10T22:40:35.766Z,2.80
2023-05-10T22:43:37.013Z,5.40
2023-05-10T22:46:38.301Z,4.20
2023-05-10T22:49:39.677Z,4.38
2023-05-10T22:52:41.230Z,3.08
2023-05-10T22:55:42.525Z,2.60
2023-05-10T22:58:43.904Z,2.85
2023-05-10T23:01:45.308Z,2.72
2023-05-10T23:04:46.738Z,2.70
2023-05-10T23:07:53.000Z,2.33
2023-05-10T23:10:54.396Z,2.25
2023-05-10T23:13:55.677Z,2.17
2023-05-10T23:16:56.934Z,3.92
2023-05-10T23:19:58.259Z,3.15
2023-05-10T23:22:59.499Z,4.25
2023-05-10T23:26:01.167Z,5.10
2023-05-10T23:29:02.417Z,2.85
2023-05-10T23:32:03.857Z,3.97
2023-05-10T23:35:05.575Z,3.45
2023-05-10T23:38:06.872Z,3.30
2023-05-10T23:41:08.175Z,2.72
2023-05-10T23:44:09.484Z,2.92
2023-05-10T23:47:10.974Z,2.97
2023-05-10T23:50:12.259Z,2.92
2023-05-10T23:53:13.545Z,3.75
2023-05-10T23:56:14.880Z,3.83
2023-05-10T23:59:16.134Z,3.67
